createdAt,value
2023-02-11T00:01:26.918Z,2.85
2023-02-11T00:03:56.167Z,2.80
2023-02-11T00:06:27.916Z,2.79
2023-02-11T00:08:57.215Z,2.71
2023-02-11T00:11:30.194Z,2.77
2023-02-11T00:13:59.295Z,2.82
2023-02-11T00:16:27.828Z,2.84
2023-02-11T00:18:56.167Z,2.82
2023-02-11T00:21:28.372Z,2.85
2023-02-11T00:23:59.567Z,2.85
2023-02-11T00:26:31.130Z,2.85
2023-02-11T00:28:59.303Z,2.90
2023-02-11T00:31:27.995Z,2.89
2023-02-11T00:33:56.477Z,2.88
2023-02-11T00:36:28.995Z,2.87
2023-02-11T00:38:58.975Z,2.88
2023-02-11T00:41:27.383Z,2.93
2023-02-11T00:43:55.388Z,2.93
2023-02-11T00:46:24.409Z,2.94
2023-02-11T00:48:55.043Z,3.00
2023-02-11T00:51:23.161Z,3.07
2023-02-11T00:53:53.441Z,3.13
2023-02-11T00:56:21.624Z,3.10
2023-02-11T00:58:49.684Z,3.08
2023-02-11T01:01:17.826Z,3.12
2023-02-11T01:03:45.835Z,3.15
2023-02-11T01:06:14.632Z,3.23
2023-02-11T01:08:42.616Z,3.21
2023-02-11T01:11:17.967Z,3.27
2023-02-11T01:13:47.066Z,3.29
2023-02-11T01:16:16.085Z,3.28
2023-02-11T01:18:44.708Z,3.37
2023-02-11T01:21:13.344Z,3.32
2023-02-11T01:23:41.284Z,3.34
2023-02-11T01:26:09.161Z,3.37
2023-02-11T01:28:38.468Z,3.36
2023-02-11T01:31:06.568Z,3.36
2023-02-11T01:33:34.899Z,3.35
2023-02-11T01:36:06.040Z,3.42
2023-02-11T01:38:35.400Z,3.40
2023-02-11T01:41:06.365Z,3.48
2023-02-11T01:43:39.417Z,3.45
2023-02-11T01:46:29.371Z,3.48
2023-02-11T01:49:03.818Z,3.42
2023-02-11T01:51:39.144Z,3.46
2023-02-11T01:54:27.314Z,3.49
2023-02-11T01:57:18.092Z,3.44
2023-02-11T01:59:57.913Z,3.48
2023-02-11T02:02:35.472Z,3.50
2023-02-11T02:05:15.500Z,3.52
2023-02-11T02:07:57.305Z,3.52
2023-02-11T02:10:29.685Z,3.47
2023-02-11T02:12:58.246Z,3.52
2023-02-11T02:15:33.048Z,3.54
2023-02-11T02:18:22.837Z,3.53
2023-02-11T02:21:52.850Z,3.56
2023-02-11T02:24:56.506Z,3.63
2023-02-11T02:27:49.779Z,3.62
2023-02-11T02:30:55.766Z,3.58
2023-02-11T02:33:43.293Z,3.58
2023-02-11T02:36:22.436Z,3.57
2023-02-11T02:38:58.320Z,3.63
2023-02-11T02:41:31.853Z,3.59
2023-02-11T02:44:00.373Z,3.56
2023-02-11T02:46:31.496Z,3.55
2023-02-11T02:49:01.960Z,3.59
2023-02-11T02:52:02.402Z,3.57
2023-02-11T02:55:11.658Z,3.58
2023-02-11T02:57:58.481Z,3.54
2023-02-11T03:00:36.677Z,3.54
2023-02-11T03:03:24.584Z,3.60
2023-02-11T03:06:04.488Z,3.57
2023-02-11T03:08:38.905Z,3.63
2023-02-11T03:11:08.939Z,3.55
2023-02-11T03:13:40.557Z,3.52
2023-02-11T03:16:14.881Z,3.55
2023-02-11T03:18:50.493Z,3.51
2023-02-11T03:21:21.819Z,3.51
2023-02-11T03:23:55.664Z,3.57
2023-02-11T03:26:31.608Z,3.52
2023-02-11T03:29:09.730Z,3.61
2023-02-11T03:31:49.393Z,3.55
2023-02-11T03:34:28.873Z,3.55
2023-02-11T03:37:06.715Z,3.56
2023-02-11T03:39:41.547Z,3.61
2023-02-11T03:42:14.317Z,3.58
2023-02-11T03:44:50.324Z,3.58
2023-02-11T03:47:23.990Z,3.60
2023-02-11T03:49:56.490Z,3.63
2023-02-11T03:52:28.098Z,3.64
2023-02-11T03:55:01.299Z,3.67
2023-02-11T03:57:29.434Z,3.69
2023-02-11T04:00:00.349Z,3.67
2023-02-11T04:02:34.036Z,3.65
2023-02-11T04:05:02.319Z,3.69
2023-02-11T04:07:31.904Z,3.70
2023-02-11T04:09:59.836Z,3.72
2023-02-11T04:12:28.038Z,3.67
2023-02-11T04:14:56.062Z,3.67
2023-02-11T04:17:24.095Z,3.67
2023-02-11T04:19:52.103Z,3.70
2023-02-11T04:22:20.096Z,3.69
2023-02-11T04:24:49.435Z,3.71
2023-02-11T04:27:17.463Z,3.75
2023-02-11T04:29:45.476Z,3.75
2023-02-11T04:32:13.720Z,3.75
2023-02-11T04:34:41.835Z,3.74
2023-02-11T04:37:10.167Z,3.73
2023-02-11T04:39:38.135Z,3.75
2023-02-11T04:42:07.995Z,3.74
2023-02-11T04:44:36.004Z,3.74
2023-02-11T04:47:03.893Z,3.71
2023-02-11T04:49:31.816Z,3.71
2023-02-11T04:51:59.737Z,3.75
2023-02-11T04:54:27.664Z,3.78
2023-02-11T04:56:55.608Z,3.74
2023-02-11T04:59:25.014Z,3.69
2023-02-11T05:01:52.980Z,3.73
2023-02-11T05:04:21.021Z,3.69
2023-02-11T05:06:48.977Z,3.64
2023-02-11T05:09:17.752Z,3.62
2023-02-11T05:11:45.703Z,3.63
2023-02-11T05:14:13.624Z,3.61
2023-02-11T05:16:42.973Z,3.64
2023-02-11T05:19:11.028Z,3.68
2023-02-11T05:21:40.118Z,3.74
2023-02-11T05:24:10.351Z,3.76
2023-02-11T05:26:38.285Z,3.81
2023-02-11T05:29:06.253Z,3.90
2023-02-11T05:31:34.158Z,3.83
2023-02-11T05:34:04.538Z,3.84
2023-02-11T05:36:33.537Z,3.83
2023-02-11T05:39:01.618Z,3.85
2023-02-11T05:41:29.685Z,3.85
2023-02-11T05:43:57.595Z,3.78
2023-02-11T05:46:25.556Z,3.75
2023-02-11T05:48:53.511Z,3.79
2023-02-11T05:51:22.912Z,3.83
2023-02-11T05:53:50.809Z,3.79
2023-02-11T05:56:18.722Z,3.84
2023-02-11T05:58:46.685Z,3.86
2023-02-11T06:01:14.638Z,3.82
2023-02-11T06:03:42.651Z,3.86
2023-02-11T06:06:12.979Z,3.88
2023-02-11T06:08:43.007Z,3.99
2023-02-11T06:11:10.996Z,3.96
2023-02-11T06:13:38.869Z,3.93
2023-02-11T06:16:07.288Z,3.97
2023-02-11T06:18:35.234Z,4.05
2023-02-11T06:21:03.315Z,4.03
2023-02-11T06:23:31.196Z,4.04
2023-02-11T06:26:04.595Z,4.04
2023-02-11T06:28:33.527Z,4.03
2023-02-11T06:31:07.632Z,4.06
2023-02-11T06:33:36.280Z,4.07
2023-02-11T06:36:06.238Z,4.05
2023-02-11T06:38:34.284Z,4.10
2023-02-11T06:41:03.705Z,4.14
2023-02-11T06:43:31.654Z,4.14
2023-02-11T06:45:59.589Z,4.18
2023-02-11T06:48:27.632Z,4.21
2023-02-11T06:50:55.609Z,4.24
2023-02-11T06:53:23.725Z,4.22
2023-02-11T06:55:51.921Z,4.21
2023-02-11T06:58:21.712Z,4.24
2023-02-11T07:00:49.604Z,4.24
2023-02-11T07:03:17.664Z,4.36
2023-02-11T07:05:45.873Z,4.36
2023-02-11T07:08:13.921Z,4.34
2023-02-11T07:10:42.081Z,4.41
2023-02-11T07:13:10.032Z,4.38
2023-02-11T07:15:39.456Z,4.43
2023-02-11T07:18:07.467Z,4.48
2023-02-11T07:20:35.374Z,4.56
2023-02-11T07:23:03.316Z,4.63
2023-02-11T07:25:31.416Z,4.68
2023-02-11T07:27:59.497Z,4.70
2023-02-11T07:30:27.432Z,4.78
2023-02-11T07:32:57.854Z,4.77
2023-02-11T07:35:25.837Z,4.88
2023-02-11T07:37:53.751Z,4.90
2023-02-11T07:40:22.080Z,4.97
2023-02-11T07:42:50.060Z,4.92
2023-02-11T07:45:18.409Z,4.97
2023-02-11T07:47:46.387Z,5.01
2023-02-11T07:50:17.852Z,5.05
2023-02-11T07:52:45.915Z,5.08
2023-02-11T07:55:14.033Z,5.08
2023-02-11T07:57:42.179Z,5.10
2023-02-11T08:00:12.256Z,5.09
2023-02-11T08:02:40.223Z,5.19
2023-02-11T08:05:08.740Z,5.19
2023-02-11T08:07:38.146Z,5.18
2023-02-11T08:10:07.125Z,5.23
2023-02-11T08:12:38.150Z,5.31
2023-02-11T08:15:06.646Z,5.28
2023-02-11T08:17:36.306Z,5.24
2023-02-11T08:20:04.337Z,5.20
2023-02-11T08:22:33.413Z,5.15
2023-02-11T08:25:03.092Z,5.14
2023-02-11T08:27:31.161Z,5.21
2023-02-11T08:30:00.405Z,5.25
2023-02-11T08:32:28.709Z,5.12
2023-02-11T08:34:58.899Z,5.11
2023-02-11T08:37:27.425Z,5.16
2023-02-11T08:39:55.458Z,5.11
2023-02-11T08:42:24.972Z,5.25
2023-02-11T08:44:52.889Z,5.27
2023-02-11T08:47:20.855Z,5.36
2023-02-11T08:49:48.883Z,5.29
2023-02-11T08:52:16.870Z,5.36
2023-02-11T08:54:44.817Z,5.32
2023-02-11T08:57:13.122Z,5.42
2023-02-11T08:59:42.550Z,5.33
2023-02-11T09:02:13.729Z,5.40
2023-02-11T09:04:42.157Z,5.40
2023-02-11T09:07:10.122Z,5.42
2023-02-11T09:09:38.116Z,5.33
2023-02-11T09:12:06.905Z,5.35
2023-02-11T09:14:35.161Z,5.47
2023-02-11T09:17:04.590Z,5.39
2023-02-11T09:19:32.744Z,5.52
2023-02-11T09:22:00.699Z,5.50
2023-02-11T09:24:28.711Z,5.50
2023-02-11T09:26:56.645Z,5.53
2023-02-11T09:29:24.804Z,5.45
2023-02-11T09:31:52.920Z,5.42
2023-02-11T09:34:22.322Z,5.44
2023-02-11T09:36:50.312Z,5.43
2023-02-11T09:39:20.748Z,5.54
2023-02-11T09:42:21.267Z,5.53
2023-02-11T09:44:50.376Z,5.52
2023-02-11T09:47:29.249Z,5.46
2023-02-11T09:50:07.037Z,5.42
2023-02-11T09:52:46.699Z,5.52
2023-02-11T09:55:22.199Z,5.47
2023-02-11T09:57:50.632Z,5.50
2023-02-11T10:00:24.397Z,5.45
2023-02-11T10:03:21.060Z,5.35
2023-02-11T10:06:17.040Z,5.37
2023-02-11T10:09:02.683Z,5.45
2023-02-11T10:11:47.257Z,5.40
2023-02-11T10:14:48.149Z,5.49
2023-02-11T10:17:32.033Z,5.44
2023-02-11T10:20:21.951Z,5.49
2023-02-11T10:22:55.844Z,5.56
2023-02-11T10:25:30.699Z,5.54
2023-02-11T10:28:03.626Z,5.60
2023-02-11T10:30:38.338Z,5.63
2023-02-11T10:33:21.345Z,5.58
2023-02-11T10:35:49.817Z,5.69
2023-02-11T10:38:19.247Z,5.67
2023-02-11T10:40:47.267Z,5.67
2023-02-11T10:43:18.156Z,5.76
2023-02-11T10:45:50.200Z,5.70
2023-02-11T10:48:42.241Z,5.75
2023-02-11T10:51:19.751Z,5.72
2023-02-11T10:53:51.821Z,5.75
2023-02-11T10:56:27.792Z,5.81
2023-02-11T10:59:01.556Z,5.77
2023-02-11T11:01:42.825Z,5.75
2023-02-11T11:04:36.562Z,5.76
2023-02-11T11:07:21.853Z,5.71
2023-02-11T11:09:56.648Z,5.68
2023-02-11T11:12:36.445Z,5.65
2023-02-11T11:15:21.403Z,5.76
2023-02-11T11:17:50.548Z,5.79
2023-02-11T11:20:27.777Z,5.77
2023-02-11T11:23:16.976Z,5.84
2023-02-11T11:26:02.792Z,5.85
2023-02-11T11:28:38.827Z,5.88
2023-02-11T11:31:15.074Z,5.83
2023-02-11T11:33:45.537Z,5.88
2023-02-11T11:36:18.134Z,5.85
2023-02-11T11:38:53.438Z,5.93
2023-02-11T11:41:27.405Z,5.97
2023-02-11T11:44:23.805Z,6.01
2023-02-11T11:47:14.922Z,6.07
2023-02-11T11:49:52.860Z,6.08
2023-02-11T11:52:39.062Z,6.21
2023-02-11T11:55:19.015Z,6.17
2023-02-11T11:57:49.735Z,6.19
2023-02-11T12:00:22.152Z,6.21
2023-02-11T12:03:30.529Z,6.26
2023-02-11T12:06:21.360Z,6.46
2023-02-11T12:09:07.947Z,6.40
2023-02-11T12:11:59.880Z,6.40
2023-02-11T12:14:42.268Z,6.48
2023-02-11T12:17:28.795Z,6.52
2023-02-11T12:20:23.672Z,6.54
2023-02-11T12:23:15.465Z,6.56
2023-02-11T12:25:52.420Z,6.55
2023-02-11T12:28:37.959Z,6.56
2023-02-11T12:31:28.611Z,6.55
2023-02-11T12:34:23.317Z,6.60
2023-02-11T12:37:08.822Z,6.66
2023-02-11T12:39:46.137Z,6.60
2023-02-11T12:43:08.581Z,6.60
2023-02-11T12:45:54.958Z,6.71
2023-02-11T12:48:47.160Z,6.67
2023-02-11T12:51:38.819Z,6.70
2023-02-11T12:54:30.982Z,6.66
2023-02-11T12:57:07.389Z,6.74
2023-02-11T12:59:50.616Z,6.73
2023-02-11T13:02:34.220Z,6.74
2023-02-11T13:05:14.497Z,6.81
2023-02-11T13:07:48.714Z,6.74
2023-02-11T13:10:31.569Z,6.74
2023-02-11T13:13:18.507Z,6.79
2023-02-11T13:15:52.622Z,6.76
2023-02-11T13:18:51.739Z,6.74
2023-02-11T13:22:04.805Z,6.75
2023-02-11T13:24:44.851Z,6.76
2023-02-11T13:27:31.493Z,6.78
2023-02-11T13:30:29.500Z,6.81
2023-02-11T13:33:20.609Z,6.88
2023-02-11T13:36:15.659Z,6.82
2023-02-11T13:38:56.100Z,6.82
2023-02-11T13:41:35.017Z,6.85
2023-02-11T13:44:28.294Z,6.82
2023-02-11T13:47:02.446Z,6.83
2023-02-11T13:49:38.242Z,6.75
2023-02-11T13:52:19.934Z,6.80
2023-02-11T13:54:54.186Z,6.79
2023-02-11T13:57:43.596Z,6.77
2023-02-11T14:00:49.821Z,6.84
2023-02-11T14:03:47.214Z,6.78
2023-02-11T14:06:40.175Z,6.71
2023-02-11T14:09:37.147Z,6.76
2023-02-11T14:12:35.769Z,6.78
2023-02-11T14:15:39.076Z,6.74
2023-02-11T14:18:59.808Z,6.75
2023-02-11T14:21:38.823Z,6.78
2023-02-11T14:24:49.865Z,6.69
2023-02-11T14:27:29.191Z,6.69
2023-02-11T14:30:27.527Z,6.73
2023-02-11T14:33:35.933Z,6.73
2023-02-11T14:36:28.629Z,6.72
2023-02-11T14:39:12.597Z,6.73
2023-02-11T14:41:47.192Z,6.72
2023-02-11T14:44:20.389Z,6.73
2023-02-11T14:46:53.649Z,6.71
2023-02-11T14:49:29.535Z,6.65
2023-02-11T14:52:07.391Z,6.69
2023-02-11T14:54:36.894Z,6.66
2023-02-11T14:57:12.650Z,6.69
2023-02-11T14:59:58.902Z,6.65
2023-02-11T15:02:34.245Z,6.72
2023-02-11T15:05:26.325Z,6.76
2023-02-11T15:07:57.004Z,6.71
2023-02-11T15:10:33.905Z,6.66
2023-02-11T15:13:04.264Z,6.69
2023-02-11T15:15:37.342Z,6.70
2023-02-11T15:18:09.555Z,6.74
2023-02-11T15:20:37.747Z,6.72
2023-02-11T15:23:10.362Z,6.70
2023-02-11T15:25:46.281Z,6.66
2023-02-11T15:38:38.419Z,6.71
2023-02-11T15:41:09.707Z,6.67
2023-02-11T15:43:47.293Z,6.70
2023-02-11T15:46:20.352Z,6.69
2023-02-11T15:48:53.174Z,6.70
2023-02-11T15:51:25.464Z,6.69
2023-02-11T15:53:58.520Z,6.63
2023-02-11T15:56:33.166Z,6.70
2023-02-11T15:59:13.795Z,6.70
2023-02-11T16:01:42.353Z,6.69
2023-02-11T16:04:32.884Z,6.70
2023-02-11T16:07:00.963Z,6.73
2023-02-11T16:09:37.168Z,6.70
2023-02-11T16:12:27.044Z,6.67
2023-02-11T16:14:56.497Z,6.73
2023-02-11T16:17:28.971Z,6.71
2023-02-11T16:19:57.429Z,6.76
2023-02-11T16:22:28.854Z,6.75
2023-02-11T16:25:00.792Z,6.71
2023-02-11T16:27:40.729Z,6.75
2023-02-11T16:30:27.981Z,6.73
2023-02-11T16:32:58.790Z,6.68
2023-02-11T16:35:26.747Z,6.74
2023-02-11T16:37:55.449Z,6.78
2023-02-11T16:40:23.524Z,6.81
2023-02-11T16:42:53.491Z,6.72
2023-02-11T16:45:21.608Z,6.84
2023-02-11T16:47:50.813Z,6.78
2023-02-11T16:50:24.912Z,6.78
2023-02-11T16:52:53.445Z,6.77
2023-02-11T16:55:22.278Z,6.82
2023-02-11T16:57:52.115Z,6.82
2023-02-11T17:00:20.719Z,6.88
2023-02-11T17:02:48.806Z,6.86
2023-02-11T17:05:20.240Z,6.83
2023-02-11T17:07:48.279Z,6.83
2023-02-11T17:10:19.396Z,6.83
2023-02-11T17:12:48.118Z,6.84
2023-02-11T17:15:18.024Z,6.84
2023-02-11T17:17:46.323Z,6.82
2023-02-11T17:20:16.545Z,6.82
2023-02-11T17:22:44.510Z,6.80
2023-02-11T17:25:13.185Z,6.83
2023-02-11T17:27:41.683Z,6.81
2023-02-11T17:30:11.850Z,6.86
2023-02-11T17:32:41.257Z,6.89
2023-02-11T17:35:09.716Z,6.89
2023-02-11T17:38:31.818Z,6.86
2023-02-11T17:41:07.797Z,6.90
2023-02-11T17:44:12.213Z,6.84
2023-02-11T17:46:40.490Z,6.89
2023-02-11T17:49:11.217Z,6.86
2023-02-11T17:51:40.944Z,6.92
2023-02-11T17:54:13.743Z,6.99
2023-02-11T17:56:42.743Z,6.93
2023-02-11T17:59:13.559Z,6.90
2023-02-11T18:01:43.874Z,6.93
2023-02-11T18:04:26.039Z,6.98
2023-02-11T18:06:54.715Z,7.00
2023-02-11T18:09:22.874Z,6.94
2023-02-11T18:11:52.506Z,6.99
2023-02-11T18:14:21.077Z,6.97
2023-02-11T18:16:52.245Z,6.93
2023-02-11T18:19:22.359Z,6.93
2023-02-11T18:21:50.982Z,6.91
2023-02-11T18:24:19.628Z,6.93
2023-02-11T18:26:47.608Z,6.93
2023-02-11T18:29:15.573Z,6.94
2023-02-11T18:31:49.895Z,6.89
2023-02-11T18:34:17.960Z,6.90
2023-02-11T18:36:47.877Z,6.93
2023-02-11T18:39:15.938Z,6.91
2023-02-11T18:41:43.906Z,6.94
2023-02-11T18:44:14.228Z,6.95
2023-02-11T18:46:42.425Z,6.95
2023-02-11T18:49:13.125Z,6.93
2023-02-11T18:51:41.211Z,6.94
2023-02-11T18:54:10.543Z,6.94
2023-02-11T18:56:38.405Z,6.90
2023-02-11T18:59:06.412Z,6.91
2023-02-11T19:01:35.587Z,6.91
2023-02-11T19:04:06.212Z,6.92
2023-02-11T19:06:37.315Z,6.92
2023-02-11T19:09:09.742Z,6.94
2023-02-11T19:11:50.935Z,6.88
2023-02-11T19:14:24.024Z,6.92
2023-02-11T19:16:54.994Z,6.92
2023-02-11T19:19:25.198Z,6.90
2023-02-11T19:21:53.428Z,6.91
2023-02-11T19:24:22.432Z,6.93
2023-02-11T19:26:53.850Z,6.96
2023-02-11T19:29:22.006Z,6.94
2023-02-11T19:31:50.243Z,6.93
2023-02-11T19:34:20.839Z,6.89
2023-02-11T19:36:49.926Z,6.92
2023-02-11T19:39:18.456Z,6.92
2023-02-11T19:41:46.531Z,6.86
2023-02-11T19:44:16.606Z,6.86
2023-02-11T19:46:45.974Z,6.85
2023-02-11T19:49:22.794Z,6.87
2023-02-11T19:51:51.313Z,6.88
2023-02-11T19:54:20.180Z,6.88
2023-02-11T19:56:48.965Z,6.85
2023-02-11T19:59:18.293Z,6.83
2023-02-11T20:01:47.645Z,6.78
2023-02-11T20:04:16.678Z,6.71
2023-02-11T20:06:48.074Z,6.79
2023-02-11T20:09:16.827Z,6.78
2023-02-11T20:11:45.119Z,6.79
2023-02-11T20:14:15.620Z,6.82
2023-02-11T20:16:49.603Z,6.82
2023-02-11T20:19:21.875Z,6.80
2023-02-11T20:21:53.159Z,6.78
2023-02-11T20:24:22.174Z,6.78
2023-02-11T20:26:55.185Z,6.75
2023-02-11T20:29:24.850Z,6.75
2023-02-11T20:31:54.907Z,6.68
2023-02-11T20:34:23.006Z,6.69
2023-02-11T20:36:52.785Z,6.68
2023-02-11T20:39:22.826Z,6.67
2023-02-11T20:41:52.332Z,6.75
2023-02-11T20:44:21.777Z,6.67
2023-02-11T20:46:50.231Z,6.68
2023-02-11T20:49:22.603Z,6.65
2023-02-11T20:51:51.176Z,6.70
2023-02-11T20:54:21.381Z,6.69
2023-02-11T20:56:51.774Z,6.65
2023-02-11T20:59:20.951Z,6.62
2023-02-11T21:01:53.310Z,6.62
2023-02-11T21:04:26.547Z,6.61
2023-02-11T21:06:57.928Z,6.62
2023-02-11T21:09:29.012Z,6.62
2023-02-11T21:11:57.676Z,6.61
2023-02-11T21:14:27.643Z,6.67
2023-02-11T21:16:56.497Z,6.63
2023-02-11T21:19:26.353Z,6.67
2023-02-11T21:21:57.178Z,6.66
2023-02-11T21:24:25.094Z,6.59
2023-02-11T21:26:53.039Z,6.56
2023-02-11T21:29:23.509Z,6.57
2023-02-11T21:31:51.730Z,6.54
2023-02-11T21:34:20.800Z,6.61
2023-02-11T21:36:51.156Z,6.61
2023-02-11T21:39:20.318Z,6.64
2023-02-11T21:41:48.308Z,6.55
2023-02-11T21:44:16.474Z,6.64
2023-02-11T21:46:44.517Z,6.61
2023-02-11T21:49:12.540Z,6.57
2023-02-11T21:51:40.806Z,6.62
2023-02-11T21:54:12.578Z,6.60
2023-02-11T21:56:40.619Z,6.57
2023-02-11T21:59:08.547Z,6.59
2023-02-11T22:01:36.918Z,6.62
2023-02-11T22:04:05.258Z,6.58
2023-02-11T22:06:35.905Z,6.56
2023-02-11T22:09:07.144Z,6.54
2023-02-11T22:11:37.000Z,6.59
2023-02-11T22:14:05.811Z,6.57
2023-02-11T22:16:34.105Z,6.54
2023-02-11T22:19:03.339Z,6.57
2023-02-11T22:21:31.639Z,6.56
2023-02-11T22:23:59.655Z,6.57
2023-02-11T22:26:29.588Z,6.53
2023-02-11T22:28:59.205Z,6.59
2023-02-11T22:31:31.538Z,6.52
2023-02-11T22:34:00.026Z,6.58
2023-02-11T22:36:31.359Z,6.58
2023-02-11T22:39:02.820Z,6.55
2023-02-11T22:41:31.302Z,6.54
2023-02-11T22:44:00.944Z,6.61
2023-02-11T22:46:28.770Z,6.53
2023-02-11T22:48:57.217Z,6.60
2023-02-11T22:51:29.766Z,6.55
2023-02-11T22:54:00.421Z,6.55
2023-02-11T22:56:31.078Z,6.49
2023-02-11T22:59:03.067Z,6.49
2023-02-11T23:01:46.451Z,6.51
2023-02-11T23:04:16.946Z,6.51
2023-02-11T23:06:47.528Z,6.48
2023-02-11T23:09:15.815Z,6.54
2023-02-11T23:11:44.152Z,6.48
2023-02-11T23:14:22.984Z,6.47
2023-02-11T23:16:57.147Z,6.46
2023-02-11T23:19:25.176Z,6.47
2023-02-11T23:21:54.738Z,6.54
2023-02-11T23:24:22.724Z,6.53
2023-02-11T23:26:50.752Z,6.39
2023-02-11T23:29:20.139Z,6.41
2023-02-11T23:31:48.227Z,6.35
2023-02-11T23:34:20.274Z,6.32
2023-02-11T23:36:48.437Z,6.35
2023-02-11T23:39:17.843Z,6.37
2023-02-11T23:41:48.151Z,6.42
2023-02-11T23:44:16.121Z,6.38
2023-02-11T23:46:45.694Z,6.38
2023-02-11T23:49:15.443Z,6.28
2023-02-11T23:51:43.465Z,6.36
2023-02-11T23:54:13.748Z,6.38
2023-02-11T23:56:42.514Z,6.31
2023-02-11T23:59:11.523Z,6.29
